Roosevelt Field, New York
Current Conditions -  °F | °C
As of 3:51 AM on Wednesday 26 Nov 2014 (Local Time) from KJFK Reporting Station
Overcast Overcast  
Wind Chill: 50°   Ceiling: 8500
Heat Index: 50°   Visibility: 10mi
Dew Point: 27°   Wind: 17mph
Humidity: 41%   Direction: 350°N
Pressure: 30.15"   Gusts: NA
Location:  40.7256°N, 73.6474°W
Report Text: KJFK 260851Z 35015KT 10SM OVC085 10/M03 A3015 RMK AO2 SLP209 T01001028 58006 $
Loading
Personal Weather Stations






























Interactive Weather Map New forecast layout! Learn more

10-Day Weather Forecast

Advertisements
Track Severe Weather on mobile